sensor_id;sensor_type;location;lat;lon;timestamp;pressure;altitude;pressure_sealevel;temperature;humidity
73151;BME280;61354;50.758;6.106;2022-07-18T00:01:51;100024.13;;;17.97;50.90
73151;BME280;61354;50.758;6.106;2022-07-18T00:04:17;100024.03;;;17.90;51.39
73151;BME280;61354;50.758;6.106;2022-07-18T00:06:42;100029.75;;;17.63;52.83
73151;BME280;61354;50.758;6.106;2022-07-18T00:09:08;100018.97;;;17.69;52.50
73151;BME280;61354;50.758;6.106;2022-07-18T00:11:33;100031.00;;;17.70;52.34
73151;BME280;61354;50.758;6.106;2022-07-18T00:13:59;100023.69;;;17.61;53.03
73151;BME280;61354;50.758;6.106;2022-07-18T00:16:24;100030.09;;;17.58;52.66
73151;BME280;61354;50.758;6.106;2022-07-18T00:18:50;100034.00;;;17.50;53.93
73151;BME280;61354;50.758;6.106;2022-07-18T00:21:16;100041.09;;;17.40;53.12
73151;BME280;61354;50.758;6.106;2022-07-18T00:23:41;100040.19;;;17.33;54.45
73151;BME280;61354;50.758;6.106;2022-07-18T00:26:07;100036.34;;;17.45;54.70
73151;BME280;61354;50.758;6.106;2022-07-18T00:28:33;100038.78;;;17.50;52.94
73151;BME280;61354;50.758;6.106;2022-07-18T00:30:58;100036.88;;;17.57;53.20
73151;BME280;61354;50.758;6.106;2022-07-18T00:33:24;100035.47;;;17.40;53.26
73151;BME280;61354;50.758;6.106;2022-07-18T00:35:49;100037.03;;;17.34;52.63
73151;BME280;61354;50.758;6.106;2022-07-18T00:38:15;100030.03;;;17.21;52.64
73151;BME280;61354;50.758;6.106;2022-07-18T00:40:40;100026.97;;;17.03;54.88
73151;BME280;61354;50.758;6.106;2022-07-18T00:43:06;100035.31;;;16.96;53.47
73151;BME280;61354;50.758;6.106;2022-07-18T00:45:32;100032.41;;;17.19;53.29
73151;BME280;61354;50.758;6.106;2022-07-18T00:47:57;100029.03;;;17.06;53.72
73151;BME280;61354;50.758;6.106;2022-07-18T00:50:23;100031.22;;;16.90;54.40
73151;BME280;61354;50.758;6.106;2022-07-18T00:52:49;100027.66;;;16.93;54.57
73151;BME280;61354;50.758;6.106;2022-07-18T00:55:15;100024.66;;;17.09;54.56
73151;BME280;61354;50.758;6.106;2022-07-18T00:57:42;100026.13;;;16.99;54.93
73151;BME280;61354;50.758;6.106;2022-07-18T01:00:13;100022.13;;;17.00;54.84
73151;BME280;61354;50.758;6.106;2022-07-18T01:02:57;100020.44;;;16.92;55.10
73151;BME280;61354;50.758;6.106;2022-07-18T01:05:23;100013.63;;;16.93;54.62
73151;BME280;61354;50.758;6.106;2022-07-18T01:07:49;100016.38;;;16.63;55.09
73151;BME280;61354;50.758;6.106;2022-07-18T01:10:14;100016.53;;;16.74;54.41
73151;BME280;61354;50.758;6.106;2022-07-18T01:12:40;100009.09;;;16.85;54.80
73151;BME280;61354;50.758;6.106;2022-07-18T01:15:06;100014.59;;;16.78;54.94
73151;BME280;61354;50.758;6.106;2022-07-18T01:17:32;100004.34;;;16.89;53.96
73151;BME280;61354;50.758;6.106;2022-07-18T01:19:57;100003.59;;;16.92;54.09
73151;BME280;61354;50.758;6.106;2022-07-18T01:22:22;100000.06;;;16.99;53.01
73151;BME280;61354;50.758;6.106;2022-07-18T01:24:48;99987.34;;;16.78;54.94
73151;BME280;61354;50.758;6.106;2022-07-18T01:27:15;99997.16;;;16.92;53.82
73151;BME280;61354;50.758;6.106;2022-07-18T01:29:41;99999.59;;;16.93;53.51
73151;BME280;61354;50.758;6.106;2022-07-18T01:32:08;99995.19;;;16.96;53.03
73151;BME280;61354;50.758;6.106;2022-07-18T01:34:34;99989.34;;;16.78;54.54
73151;BME280;61354;50.758;6.106;2022-07-18T01:37:01;99990.31;;;16.89;52.75
73151;BME280;61354;50.758;6.106;2022-07-18T01:39:27;99991.69;;;17.02;53.14
73151;BME280;61354;50.758;6.106;2022-07-18T01:41:58;99996.56;;;17.05;53.17
73151;BME280;61354;50.758;6.106;2022-07-18T01:44:24;99992.25;;;16.85;54.04
73151;BME280;61354;50.758;6.106;2022-07-18T01:46:50;99994.09;;;17.04;53.11
73151;BME280;61354;50.758;6.106;2022-07-18T01:49:17;99988.38;;;16.93;53.63
73151;BME280;61354;50.758;6.106;2022-07-18T01:51:49;99988.44;;;17.00;53.30
73151;BME280;61354;50.758;6.106;2022-07-18T01:54:15;99991.88;;;16.60;54.50
73151;BME280;61354;50.758;6.106;2022-07-18T01:56:40;99984.94;;;16.77;54.98
73151;BME280;61354;50.758;6.106;2022-07-18T01:59:06;99984.94;;;16.77;54.42
73151;BME280;61354;50.758;6.106;2022-07-18T02:01:31;99986.75;;;16.92;54.27
73151;BME280;61354;50.758;6.106;2022-07-18T02:03:57;99987.75;;;16.77;54.77
73151;BME280;61354;50.758;6.106;2022-07-18T02:06:22;99990.25;;;16.85;54.20
73151;BME280;61354;50.758;6.106;2022-07-18T02:08:48;99991.34;;;16.51;55.50
73151;BME280;61354;50.758;6.106;2022-07-18T02:11:14;99978.47;;;16.73;54.14
73151;BME280;61354;50.758;6.106;2022-07-18T02:13:39;99980.66;;;16.60;55.06
73151;BME280;61354;50.758;6.106;2022-07-18T02:16:05;99972.31;;;16.63;53.66
73151;BME280;61354;50.758;6.106;2022-07-18T02:18:31;99974.13;;;16.52;54.13
73151;BME280;61354;50.758;6.106;2022-07-18T02:21:02;99977.75;;;16.53;53.77
73151;BME280;61354;50.758;6.106;2022-07-18T02:23:27;99970.06;;;16.50;53.18
73151;BME280;61354;50.758;6.106;2022-07-18T02:25:55;99976.16;;;16.29;54.22
73151;BME280;61354;50.758;6.106;2022-07-18T02:28:21;99975.00;;;16.30;53.67
73151;BME280;61354;50.758;6.106;2022-07-18T02:30:47;99974.13;;;16.52;54.04
73151;BME280;61354;50.758;6.106;2022-07-18T02:33:16;99970.59;;;16.55;53.79
73151;BME280;61354;50.758;6.106;2022-07-18T02:35:42;99965.66;;;16.49;53.51
73151;BME280;61354;50.758;6.106;2022-07-18T02:38:07;99966.28;;;16.12;54.82
73151;BME280;61354;50.758;6.106;2022-07-18T02:40:33;99969.53;;;16.14;54.35
73151;BME280;61354;50.758;6.106;2022-07-18T02:42:59;99964.94;;;16.29;53.52
73151;BME280;61354;50.758;6.106;2022-07-18T02:45:25;99966.69;;;16.37;53.43
73151;BME280;61354;50.758;6.106;2022-07-18T02:47:50;99960.22;;;16.33;54.13
73151;BME280;61354;50.758;6.106;2022-07-18T02:50:16;99965.25;;;16.47;53.04
73151;BME280;61354;50.758;6.106;2022-07-18T02:52:41;99971.47;;;16.36;53.56
73151;BME280;61354;50.758;6.106;2022-07-18T02:55:08;99968.81;;;16.21;53.68
73151;BME280;61354;50.758;6.106;2022-07-18T02:57:34;99968.28;;;16.11;54.16
73151;BME280;61354;50.758;6.106;2022-07-18T02:59:59;99975.41;;;16.32;53.32
73151;BME280;61354;50.758;6.106;2022-07-18T03:02:25;99970.19;;;16.30;54.38
73151;BME280;61354;50.758;6.106;2022-07-18T03:04:50;99973.81;;;16.31;53.13
73151;BME280;61354;50.758;6.106;2022-07-18T03:07:16;99974.38;;;16.17;54.26
73151;BME280;61354;50.758;6.106;2022-07-18T03:09:41;99973.94;;;16.15;54.82
73151;BME280;61354;50.758;6.106;2022-07-18T03:12:07;99972.34;;;16.14;53.74
73151;BME280;61354;50.758;6.106;2022-07-18T03:14:32;99975.34;;;16.02;54.53
73151;BME280;61354;50.758;6.106;2022-07-18T03:16:58;99970.00;;;15.93;54.42
73151;BME280;61354;50.758;6.106;2022-07-18T03:19:23;99964.00;;;16.18;53.37
73151;BME280;61354;50.758;6.106;2022-07-18T03:21:49;99964.88;;;16.22;52.90
73151;BME280;61354;50.758;6.106;2022-07-18T03:24:15;99964.63;;;16.34;52.69
73151;BME280;61354;50.758;6.106;2022-07-18T03:26:42;99970.75;;;16.16;53.83
73151;BME280;61354;50.758;6.106;2022-07-18T03:29:07;99960.88;;;16.23;53.36
73151;BME280;61354;50.758;6.106;2022-07-18T03:31:33;99960.00;;;16.19;52.77
73151;BME280;61354;50.758;6.106;2022-07-18T03:33:58;99952.53;;;16.03;53.06
73151;BME280;61354;50.758;6.106;2022-07-18T03:36:24;99945.13;;;16.14;53.04
73151;BME280;61354;50.758;6.106;2022-07-18T03:38:50;99951.16;;;16.16;52.95
73151;BME280;61354;50.758;6.106;2022-07-18T03:41:15;99949.22;;;16.21;52.01
73151;BME280;61354;50.758;6.106;2022-07-18T03:43:40;99954.47;;;16.22;52.95
73151;BME280;61354;50.758;6.106;2022-07-18T03:46:07;99950.72;;;16.14;53.23
73151;BME280;61354;50.758;6.106;2022-07-18T03:48:33;99955.13;;;16.15;52.90
73151;BME280;61354;50.758;6.106;2022-07-18T03:50:59;99959.88;;;16.11;52.71
73151;BME280;61354;50.758;6.106;2022-07-18T03:53:25;99955.88;;;16.12;53.21
73151;BME280;61354;50.758;6.106;2022-07-18T03:55:51;99958.13;;;16.03;53.85
73151;BME280;61354;50.758;6.106;2022-07-18T03:58:17;99955.22;;;15.96;55.17
73151;BME280;61354;50.758;6.106;2022-07-18T04:00:43;99954.06;;;15.97;54.63
73151;BME280;61354;50.758;6.106;2022-07-18T04:03:08;99957.41;;;16.06;54.56
73151;BME280;61354;50.758;6.106;2022-07-18T04:05:34;99958.53;;;16.02;54.13
73151;BME280;61354;50.758;6.106;2022-07-18T04:07:59;99958.34;;;15.91;55.05
73151;BME280;61354;50.758;6.106;2022-07-18T04:10:25;99954.84;;;15.98;54.69
73151;BME280;61354;50.758;6.106;2022-07-18T04:12:53;99948.75;;;15.92;54.78
73151;BME280;61354;50.758;6.106;2022-07-18T04:15:21;99956.06;;;16.00;55.58
73151;BME280;61354;50.758;6.106;2022-07-18T04:17:47;99946.94;;;16.03;55.67
73151;BME280;61354;50.758;6.106;2022-07-18T04:20:13;99952.41;;;15.96;56.92
73151;BME280;61354;50.758;6.106;2022-07-18T04:22:53;99943.72;;;16.01;56.45
73151;BME280;61354;50.758;6.106;2022-07-18T04:25:19;99945.53;;;16.16;55.92
73151;BME280;61354;50.758;6.106;2022-07-18T04:27:46;99938.44;;;16.23;55.24
73151;BME280;61354;50.758;6.106;2022-07-18T04:30:13;99942.47;;;16.25;55.68
73151;BME280;61354;50.758;6.106;2022-07-18T04:32:38;99927.88;;;16.12;57.21
73151;BME280;61354;50.758;6.106;2022-07-18T04:35:05;99925.38;;;16.34;56.14
73151;BME280;61354;50.758;6.106;2022-07-18T04:37:31;99934.44;;;16.24;56.87
73151;BME280;61354;50.758;6.106;2022-07-18T04:39:57;99927.97;;;16.46;56.46
73151;BME280;61354;50.758;6.106;2022-07-18T04:42:23;99928.41;;;16.48;57.03
73151;BME280;61354;50.758;6.106;2022-07-18T04:44:49;99921.38;;;16.61;56.93
73151;BME280;61354;50.758;6.106;2022-07-18T04:47:14;99923.50;;;16.68;57.12
73151;BME280;61354;50.758;6.106;2022-07-18T04:49:39;99932.66;;;16.65;56.91
73151;BME280;61354;50.758;6.106;2022-07-18T04:52:05;99926.84;;;16.77;57.79
73151;BME280;61354;50.758;6.106;2022-07-18T04:54:30;99934.00;;;16.75;57.87
73151;BME280;61354;50.758;6.106;2022-07-18T04:56:55;99923.00;;;16.89;57.24
73151;BME280;61354;50.758;6.106;2022-07-18T04:59:21;99921.50;;;16.99;56.85
73151;BME280;61354;50.758;6.106;2022-07-18T05:01:46;99927.25;;;17.09;55.53
73151;BME280;61354;50.758;6.106;2022-07-18T05:04:11;99916.53;;;17.19;55.57
73151;BME280;61354;50.758;6.106;2022-07-18T05:06:37;99922.22;;;17.26;55.14
73151;BME280;61354;50.758;6.106;2022-07-18T05:09:02;99925.50;;;17.31;56.13
73151;BME280;61354;50.758;6.106;2022-07-18T05:11:28;99925.53;;;17.35;57.12
73151;BME280;61354;50.758;6.106;2022-07-18T05:13:53;99924.81;;;17.45;55.93
73151;BME280;61354;50.758;6.106;2022-07-18T05:16:19;99923.31;;;17.51;56.15
73151;BME280;61354;50.758;6.106;2022-07-18T05:18:44;99928.16;;;17.58;55.67
73151;BME280;61354;50.758;6.106;2022-07-18T05:21:10;99921.81;;;17.64;56.08
73151;BME280;61354;50.758;6.106;2022-07-18T05:23:35;99919.84;;;17.69;55.92
73151;BME280;61354;50.758;6.106;2022-07-18T05:26:01;99922.69;;;17.72;55.88
73151;BME280;61354;50.758;6.106;2022-07-18T05:28:26;99925.97;;;17.78;55.74
73151;BME280;61354;50.758;6.106;2022-07-18T05:30:52;99926.84;;;17.85;55.12
73151;BME280;61354;50.758;6.106;2022-07-18T05:33:19;99925.69;;;17.90;55.80
73151;BME280;61354;50.758;6.106;2022-07-18T05:35:45;99928.56;;;17.97;54.58
73151;BME280;61354;50.758;6.106;2022-07-18T05:38:11;99925.38;;;18.02;56.89
73151;BME280;61354;50.758;6.106;2022-07-18T05:40:36;99930.28;;;18.09;54.44
73151;BME280;61354;50.758;6.106;2022-07-18T05:43:02;99923.50;;;18.17;54.59
73151;BME280;61354;50.758;6.106;2022-07-18T05:45:28;99932.81;;;18.25;55.38
73151;BME280;61354;50.758;6.106;2022-07-18T05:47:54;99919.97;;;18.31;55.04
73151;BME280;61354;50.758;6.106;2022-07-18T05:50:20;99928.03;;;18.36;55.66
73151;BME280;61354;50.758;6.106;2022-07-18T05:52:45;99925.69;;;18.45;54.43
73151;BME280;61354;50.758;6.106;2022-07-18T05:55:11;99930.59;;;18.55;54.25
73151;BME280;61354;50.758;6.106;2022-07-18T05:57:36;99928.22;;;18.64;54.98
73151;BME280;61354;50.758;6.106;2022-07-18T06:00:07;99919.09;;;18.75;53.17
73151;BME280;61354;50.758;6.106;2022-07-18T06:02:33;99921.94;;;18.89;52.54
73151;BME280;61354;50.758;6.106;2022-07-18T06:04:58;99920.00;;;19.00;51.32
73151;BME280;61354;50.758;6.106;2022-07-18T06:07:25;99920.44;;;19.09;51.78
73151;BME280;61354;50.758;6.106;2022-07-18T06:09:50;99921.28;;;19.21;52.44
73151;BME280;61354;50.758;6.106;2022-07-18T06:12:15;99923.72;;;19.36;51.04
73151;BME280;61354;50.758;6.106;2022-07-18T06:14:41;99919.72;;;19.45;49.92
73151;BME280;61354;50.758;6.106;2022-07-18T06:17:06;99916.13;;;19.58;49.98
73151;BME280;61354;50.758;6.106;2022-07-18T06:19:32;99918.19;;;19.69;50.06
73151;BME280;61354;50.758;6.106;2022-07-18T06:21:58;99924.22;;;19.78;49.67
73151;BME280;61354;50.758;6.106;2022-07-18T06:24:24;99921.03;;;19.97;48.79
73151;BME280;61354;50.758;6.106;2022-07-18T06:26:50;99915.78;;;20.03;49.43
73151;BME280;61354;50.758;6.106;2022-07-18T06:29:16;99917.00;;;20.13;48.79
73151;BME280;61354;50.758;6.106;2022-07-18T06:31:41;99914.16;;;20.27;47.70
73151;BME280;61354;50.758;6.106;2022-07-18T06:34:07;99916.94;;;20.55;46.13
73151;BME280;61354;50.758;6.106;2022-07-18T06:36:32;99911.72;;;20.57;46.59
73151;BME280;61354;50.758;6.106;2022-07-18T06:38:58;99916.16;;;20.58;45.43
73151;BME280;61354;50.758;6.106;2022-07-18T06:41:24;99918.13;;;20.69;45.09
73151;BME280;61354;50.758;6.106;2022-07-18T06:43:49;99919.72;;;20.77;44.43
73151;BME280;61354;50.758;6.106;2022-07-18T06:46:15;99910.00;;;20.85;45.32
73151;BME280;61354;50.758;6.106;2022-07-18T06:48:40;99915.25;;;20.90;44.86
73151;BME280;61354;50.758;6.106;2022-07-18T06:51:06;99912.78;;;20.99;44.61
73151;BME280;61354;50.758;6.106;2022-07-18T06:53:32;99908.31;;;21.05;44.46
73151;BME280;61354;50.758;6.106;2022-07-18T06:58:18;99908.50;;;21.50;43.68
73151;BME280;61354;50.758;6.106;2022-07-18T07:00:43;99908.56;;;21.40;44.27
73151;BME280;61354;50.758;6.106;2022-07-18T07:03:09;99916.19;;;21.46;43.06
73151;BME280;61354;50.758;6.106;2022-07-18T07:05:34;99909.66;;;21.56;42.61
73151;BME280;61354;50.758;6.106;2022-07-18T07:08:00;99917.75;;;21.58;42.74
73151;BME280;61354;50.758;6.106;2022-07-18T07:10:25;99912.00;;;21.69;43.46
73151;BME280;61354;50.758;6.106;2022-07-18T07:12:51;99915.22;;;21.71;43.43
73151;BME280;61354;50.758;6.106;2022-07-18T07:15:19;99907.91;;;21.77;43.46
73151;BME280;61354;50.758;6.106;2022-07-18T07:17:45;99913.91;;;21.86;42.65
73151;BME280;61354;50.758;6.106;2022-07-18T07:20:11;99919.06;;;21.98;42.77
73151;BME280;61354;50.758;6.106;2022-07-18T07:22:53;99921.41;;;22.07;42.40
73151;BME280;61354;50.758;6.106;2022-07-18T07:25:21;99918.50;;;22.18;42.85
73151;BME280;61354;50.758;6.106;2022-07-18T07:27:47;99918.91;;;22.20;41.85
73151;BME280;61354;50.758;6.106;2022-07-18T07:30:14;99909.13;;;22.28;41.76
73151;BME280;61354;50.758;6.106;2022-07-18T07:32:41;99908.97;;;22.42;41.53
73151;BME280;61354;50.758;6.106;2022-07-18T07:35:08;99907.75;;;22.43;41.61
73151;BME280;61354;50.758;6.106;2022-07-18T07:37:41;99897.97;;;22.51;41.89
73151;BME280;61354;50.758;6.106;2022-07-18T07:40:08;99898.28;;;22.61;41.17
73151;BME280;61354;50.758;6.106;2022-07-18T07:42:33;99896.63;;;22.63;41.23
73151;BME280;61354;50.758;6.106;2022-07-18T07:44:59;99902.53;;;22.76;40.22
73151;BME280;61354;50.758;6.106;2022-07-18T07:47:25;99900.91;;;22.78;39.96
73151;BME280;61354;50.758;6.106;2022-07-18T07:49:50;99897.22;;;22.81;40.54
73151;BME280;61354;50.758;6.106;2022-07-18T07:52:16;99893.06;;;22.93;40.76
73151;BME280;61354;50.758;6.106;2022-07-18T07:54:43;99885.09;;;23.15;40.23
73151;BME280;61354;50.758;6.106;2022-07-18T07:57:12;99884.28;;;23.15;40.65
73151;BME280;61354;50.758;6.106;2022-07-18T07:59:38;99882.22;;;23.19;40.37
73151;BME280;61354;50.758;6.106;2022-07-18T08:02:04;99884.13;;;23.25;41.09
73151;BME280;61354;50.758;6.106;2022-07-18T08:04:30;99885.22;;;23.35;40.38
73151;BME280;61354;50.758;6.106;2022-07-18T08:06:56;99887.53;;;23.44;38.88
73151;BME280;61354;50.758;6.106;2022-07-18T08:09:21;99879.53;;;23.66;38.34
73151;BME280;61354;50.758;6.106;2022-07-18T08:11:47;99885.16;;;23.69;37.22
73151;BME280;61354;50.758;6.106;2022-07-18T08:14:13;99886.28;;;23.72;37.26
73151;BME280;61354;50.758;6.106;2022-07-18T08:16:38;99892.72;;;23.76;36.89
73151;BME280;61354;50.758;6.106;2022-07-18T08:19:04;99888.28;;;23.75;37.61
73151;BME280;61354;50.758;6.106;2022-07-18T08:21:29;99887.06;;;23.99;35.76
73151;BME280;61354;50.758;6.106;2022-07-18T08:23:55;99884.72;;;24.18;36.92
73151;BME280;61354;50.758;6.106;2022-07-18T08:26:20;99886.66;;;24.48;35.67
73151;BME280;61354;50.758;6.106;2022-07-18T08:28:46;99886.56;;;24.28;36.68
73151;BME280;61354;50.758;6.106;2022-07-18T08:31:12;99882.44;;;24.33;35.58
73151;BME280;61354;50.758;6.106;2022-07-18T08:33:38;99888.31;;;24.45;35.88
73151;BME280;61354;50.758;6.106;2022-07-18T08:36:04;99886.78;;;24.41;33.88
73151;BME280;61354;50.758;6.106;2022-07-18T08:38:29;99888.38;;;24.42;34.78
73151;BME280;61354;50.758;6.106;2022-07-18T08:40:56;99883.88;;;24.44;34.98
73151;BME280;61354;50.758;6.106;2022-07-18T08:43:24;99884.22;;;24.46;35.36
73151;BME280;61354;50.758;6.106;2022-07-18T08:45:51;99886.88;;;24.77;33.46
73151;BME280;61354;50.758;6.106;2022-07-18T08:48:19;99891.38;;;24.54;33.56
73151;BME280;61354;50.758;6.106;2022-07-18T08:50:46;99882.78;;;24.58;33.85
73151;BME280;61354;50.758;6.106;2022-07-18T08:53:13;99892.97;;;25.35;31.07
73151;BME280;61354;50.758;6.106;2022-07-18T08:55:38;99881.53;;;25.39;31.60
73151;BME280;61354;50.758;6.106;2022-07-18T08:58:04;99882.81;;;25.18;33.49
73151;BME280;61354;50.758;6.106;2022-07-18T09:00:30;99886.44;;;24.98;33.05
73151;BME280;61354;50.758;6.106;2022-07-18T09:02:57;99882.41;;;24.96;32.34
73151;BME280;61354;50.758;6.106;2022-07-18T09:05:23;99869.84;;;25.33;31.49
73151;BME280;61354;50.758;6.106;2022-07-18T09:07:49;99875.66;;;25.46;30.93
73151;BME280;61354;50.758;6.106;2022-07-18T09:10:14;99874.97;;;25.74;31.09
73151;BME280;61354;50.758;6.106;2022-07-18T09:12:55;99880.16;;;25.96;29.95
73151;BME280;61354;50.758;6.106;2022-07-18T09:15:20;99874.13;;;26.10;30.10
73151;BME280;61354;50.758;6.106;2022-07-18T09:17:49;99871.03;;;26.05;29.83
73151;BME280;61354;50.758;6.106;2022-07-18T09:20:15;99860.69;;;26.11;29.98
73151;BME280;61354;50.758;6.106;2022-07-18T09:22:47;99864.41;;;26.08;30.56
73151;BME280;61354;50.758;6.106;2022-07-18T09:25:15;99864.69;;;25.97;30.97
73151;BME280;61354;50.758;6.106;2022-07-18T09:27:42;99866.19;;;26.18;29.99
73151;BME280;61354;50.758;6.106;2022-07-18T09:30:10;99865.78;;;26.32;30.08
73151;BME280;61354;50.758;6.106;2022-07-18T09:32:36;99863.53;;;26.11;30.26
73151;BME280;61354;50.758;6.106;2022-07-18T09:35:07;99865.28;;;26.21;31.38
73151;BME280;61354;50.758;6.106;2022-07-18T09:37:33;99866.22;;;26.01;31.48
73151;BME280;61354;50.758;6.106;2022-07-18T09:40:18;99868.78;;;25.96;30.32
73151;BME280;61354;50.758;6.106;2022-07-18T09:42:52;99872.09;;;26.40;28.20
73151;BME280;61354;50.758;6.106;2022-07-18T09:45:25;99883.34;;;26.47;27.80
73151;BME280;61354;50.758;6.106;2022-07-18T09:47:54;99864.78;;;26.84;26.84
73151;BME280;61354;50.758;6.106;2022-07-18T09:50:22;99869.78;;;26.80;27.93
73151;BME280;61354;50.758;6.106;2022-07-18T09:55:33;99877.50;;;26.67;29.04
73151;BME280;61354;50.758;6.106;2022-07-18T09:58:06;99872.59;;;26.67;29.13
73151;BME280;61354;50.758;6.106;2022-07-18T10:00:36;99854.69;;;26.96;27.50
73151;BME280;61354;50.758;6.106;2022-07-18T10:03:03;99871.34;;;26.68;27.22
73151;BME280;61354;50.758;6.106;2022-07-18T10:05:31;99859.47;;;26.70;27.80
73151;BME280;61354;50.758;6.106;2022-07-18T10:07:59;99867.72;;;26.81;27.61
73151;BME280;61354;50.758;6.106;2022-07-18T10:10:27;99868.75;;;27.16;27.27
73151;BME280;61354;50.758;6.106;2022-07-18T10:12:58;99875.19;;;27.03;29.73
73151;BME280;61354;50.758;6.106;2022-07-18T10:15:26;99873.34;;;27.26;26.27
73151;BME280;61354;50.758;6.106;2022-07-18T10:17:53;99866.25;;;27.18;28.66
73151;BME280;61354;50.758;6.106;2022-07-18T10:20:25;99878.47;;;27.31;27.29
73151;BME280;61354;50.758;6.106;2022-07-18T10:22:52;99868.53;;;27.48;27.09
73151;BME280;61354;50.758;6.106;2022-07-18T10:25:21;99871.84;;;27.21;28.60
73151;BME280;61354;50.758;6.106;2022-07-18T10:28:00;99871.84;;;27.60;26.75
73151;BME280;61354;50.758;6.106;2022-07-18T10:30:41;99872.44;;;27.29;27.49
73151;BME280;61354;50.758;6.106;2022-07-18T10:33:36;99870.13;;;27.49;26.42
73151;BME280;61354;50.758;6.106;2022-07-18T10:36:08;99867.19;;;27.91;25.95
73151;BME280;61354;50.758;6.106;2022-07-18T10:38:34;99865.78;;;27.58;25.82
73151;BME280;61354;50.758;6.106;2022-07-18T10:43:32;99860.66;;;27.52;27.52
73151;BME280;61354;50.758;6.106;2022-07-18T10:45:59;99854.16;;;27.39;29.46
73151;BME280;61354;50.758;6.106;2022-07-18T10:48:46;99860.78;;;27.36;29.95
73151;BME280;61354;50.758;6.106;2022-07-18T10:51:13;99858.59;;;27.27;29.38
73151;BME280;61354;50.758;6.106;2022-07-18T10:54:08;99855.19;;;27.71;26.69
73151;BME280;61354;50.758;6.106;2022-07-18T10:59:19;99853.00;;;28.00;25.29
73151;BME280;61354;50.758;6.106;2022-07-18T11:01:52;99852.09;;;28.04;26.67
73151;BME280;61354;50.758;6.106;2022-07-18T11:06:55;99848.13;;;27.75;28.38
73151;BME280;61354;50.758;6.106;2022-07-18T11:09:37;99844.34;;;27.79;29.78
73151;BME280;61354;50.758;6.106;2022-07-18T11:12:29;99838.63;;;27.66;28.32
73151;BME280;61354;50.758;6.106;2022-07-18T11:20:39;99840.41;;;28.11;26.41
73151;BME280;61354;50.758;6.106;2022-07-18T11:23:21;99837.00;;;28.03;27.81
73151;BME280;61354;50.758;6.106;2022-07-18T11:25:55;99839.13;;;28.24;25.86
73151;BME280;61354;50.758;6.106;2022-07-18T11:28:21;99824.84;;;28.12;27.94
73151;BME280;61354;50.758;6.106;2022-07-18T11:31:03;99828.41;;;28.51;26.94
73151;BME280;61354;50.758;6.106;2022-07-18T11:33:31;99820.66;;;28.82;24.75
73151;BME280;61354;50.758;6.106;2022-07-18T11:38:33;99821.53;;;29.14;24.12
73151;BME280;61354;50.758;6.106;2022-07-18T11:40:59;99811.13;;;28.76;27.06
73151;BME280;61354;50.758;6.106;2022-07-18T11:43:27;99816.91;;;29.47;25.13
73151;BME280;61354;50.758;6.106;2022-07-18T11:46:19;99810.44;;;29.16;24.85
73151;BME280;61354;50.758;6.106;2022-07-18T11:48:48;99813.84;;;29.02;25.95
73151;BME280;61354;50.758;6.106;2022-07-18T11:51:15;99824.53;;;28.88;27.58
73151;BME280;61354;50.758;6.106;2022-07-18T11:53:52;99813.09;;;28.88;27.78
73151;BME280;61354;50.758;6.106;2022-07-18T11:56:20;99810.66;;;29.00;26.72
73151;BME280;61354;50.758;6.106;2022-07-18T11:58:47;99814.13;;;29.26;24.50
73151;BME280;61354;50.758;6.106;2022-07-18T12:01:13;99809.59;;;29.15;24.07
73151;BME280;61354;50.758;6.106;2022-07-18T12:03:49;99802.25;;;29.36;25.51
73151;BME280;61354;50.758;6.106;2022-07-18T12:06:23;99801.28;;;29.39;25.26
73151;BME280;61354;50.758;6.106;2022-07-18T12:08:49;99797.81;;;29.44;24.56
73151;BME280;61354;50.758;6.106;2022-07-18T12:11:27;99790.84;;;29.45;23.79
73151;BME280;61354;50.758;6.106;2022-07-18T12:21:55;99800.88;;;29.19;24.99
73151;BME280;61354;50.758;6.106;2022-07-18T12:24:37;99794.63;;;29.02;26.46
73151;BME280;61354;50.758;6.106;2022-07-18T12:35:17;99780.94;;;29.37;24.59
73151;BME280;61354;50.758;6.106;2022-07-18T12:40:18;99781.59;;;29.41;24.77
73151;BME280;61354;50.758;6.106;2022-07-18T12:42:43;99776.09;;;29.56;24.59
73151;BME280;61354;50.758;6.106;2022-07-18T12:45:12;99773.69;;;29.55;26.09
73151;BME280;61354;50.758;6.106;2022-07-18T12:47:39;99774.56;;;29.92;26.00
73151;BME280;61354;50.758;6.106;2022-07-18T12:50:05;99765.97;;;29.83;25.35
73151;BME280;61354;50.758;6.106;2022-07-18T12:52:32;99773.28;;;30.02;25.78
73151;BME280;61354;50.758;6.106;2022-07-18T12:54:57;99768.06;;;29.91;23.78
73151;BME280;61354;50.758;6.106;2022-07-18T12:57:23;99764.84;;;29.89;27.11
73151;BME280;61354;50.758;6.106;2022-07-18T12:59:49;99776.94;;;29.93;24.18
73151;BME280;61354;50.758;6.106;2022-07-18T13:02:15;99768.06;;;29.91;24.39
73151;BME280;61354;50.758;6.106;2022-07-18T13:04:41;99754.69;;;29.79;28.90
73151;BME280;61354;50.758;6.106;2022-07-18T13:07:07;99756.13;;;29.84;26.44
73151;BME280;61354;50.758;6.106;2022-07-18T13:09:32;99765.97;;;30.10;24.34
73151;BME280;61354;50.758;6.106;2022-07-18T13:11:59;99763.94;;;30.29;24.17
73151;BME280;61354;50.758;6.106;2022-07-18T13:14:25;99752.78;;;30.31;22.89
73151;BME280;61354;50.758;6.106;2022-07-18T13:16:50;99754.06;;;30.12;24.84
73151;BME280;61354;50.758;6.106;2022-07-18T13:19:18;99754.53;;;30.01;27.24
73151;BME280;61354;50.758;6.106;2022-07-18T13:21:45;99752.16;;;30.18;24.81
73151;BME280;61354;50.758;6.106;2022-07-18T13:24:12;99755.94;;;30.52;23.28
73151;BME280;61354;50.758;6.106;2022-07-18T13:26:38;99755.03;;;30.45;23.18
73151;BME280;61354;50.758;6.106;2022-07-18T13:29:04;99747.41;;;30.33;23.68
73151;BME280;61354;50.758;6.106;2022-07-18T13:31:30;99745.81;;;30.32;23.78
73151;BME280;61354;50.758;6.106;2022-07-18T13:33:56;99744.38;;;30.37;23.69
73151;BME280;61354;50.758;6.106;2022-07-18T13:36:22;99746.41;;;30.45;23.35
73151;BME280;61354;50.758;6.106;2022-07-18T13:38:47;99742.63;;;30.30;25.57
73151;BME280;61354;50.758;6.106;2022-07-18T13:41:13;99736.50;;;30.56;24.02